createdAt,value
2022-12-24T00:03:15.306Z,58.46
2022-12-24T00:08:16.988Z,58.60
2022-12-24T00:13:19.401Z,58.73
2022-12-24T00:18:21.061Z,58.85
2022-12-24T00:23:22.839Z,59.03
2022-12-24T00:28:24.681Z,58.78
2022-12-24T00:33:26.333Z,58.67
2022-12-24T00:38:28.099Z,58.23
2022-12-24T00:43:30.694Z,58.14
2022-12-24T00:48:32.312Z,58.09
2022-12-24T00:53:33.916Z,57.83
2022-12-24T00:58:35.830Z,58.04
2022-12-24T01:03:37.597Z,58.30
2022-12-24T01:08:39.708Z,58.36
2022-12-24T01:13:41.348Z,58.61
2022-12-24T01:18:44.075Z,58.46
2022-12-24T01:23:45.816Z,58.36
2022-12-24T01:28:47.493Z,58.41
2022-12-24T01:33:49.661Z,58.49
2022-12-24T01:38:53.858Z,58.39
2022-12-24T01:43:55.471Z,58.25
2022-12-24T01:49:00.477Z,58.49
2022-12-24T01:54:07.911Z,58.67
2022-12-24T01:59:14.785Z,59.21
2022-12-24T02:04:34.440Z,59.93
2022-12-24T02:09:37.168Z,60.22
2022-12-24T02:14:38.966Z,60.52
2022-12-24T02:20:07.492Z,60.67
2022-12-24T02:25:20.770Z,60.83
2022-12-24T02:30:26.420Z,60.91
2022-12-24T02:35:35.375Z,61.03
2022-12-24T02:40:59.615Z,61.36
2022-12-24T02:46:07.386Z,61.04
2022-12-24T02:51:10.900Z,61.46
2022-12-24T02:56:37.131Z,61.77
2022-12-24T03:01:54.839Z,61.78
2022-12-24T03:07:15.609Z,61.68
2022-12-24T03:12:24.675Z,61.91
2022-12-24T03:17:27.114Z,61.74
2022-12-24T03:22:32.455Z,61.96
2022-12-24T03:27:35.395Z,61.71
2022-12-24T03:32:37.201Z,61.64
2022-12-24T03:37:38.776Z,61.29
2022-12-24T03:42:40.391Z,61.19
2022-12-24T03:47:42.172Z,61.43
2022-12-24T03:52:44.327Z,61.68
2022-12-24T03:57:45.992Z,61.81
2022-12-24T04:02:47.699Z,61.93
2022-12-24T04:07:49.443Z,61.97
2022-12-24T04:12:52.131Z,62.25
2022-12-24T04:17:53.720Z,62.68
2022-12-24T04:22:55.439Z,63.36
2022-12-24T04:27:57.157Z,63.43
2022-12-24T04:32:58.843Z,63.35
2022-12-24T04:38:00.627Z,63.14
2022-12-24T04:43:02.512Z,63.29
2022-12-24T04:48:04.279Z,63.73
2022-12-24T04:53:05.875Z,64.11
2022-12-24T04:58:07.661Z,64.69
2022-12-24T05:03:09.463Z,64.81
2022-12-24T05:08:11.136Z,64.79
2022-12-24T05:13:12.756Z,64.73
2022-12-24T05:18:14.357Z,64.80
2022-12-24T05:23:36.597Z,64.40
2022-12-24T05:28:38.242Z,64.58
2022-12-24T05:33:39.833Z,64.85
2022-12-24T05:38:42.040Z,65.02
2022-12-24T05:43:43.774Z,65.06
2022-12-24T05:48:46.286Z,64.87
2022-12-24T05:53:49.448Z,65.21
2022-12-24T05:58:53.631Z,65.21
2022-12-24T06:03:56.751Z,65.95
2022-12-24T06:08:59.096Z,66.19
2022-12-24T06:14:00.756Z,66.53
2022-12-24T06:19:02.489Z,66.91
2022-12-24T06:24:04.454Z,66.90
2022-12-24T06:29:06.444Z,66.95
2022-12-24T06:34:10.915Z,66.71
2022-12-24T06:39:12.600Z,66.96
2022-12-24T06:44:14.167Z,66.88
2022-12-24T06:49:15.792Z,67.06
2022-12-24T06:54:17.430Z,67.24
2022-12-24T06:59:19.027Z,67.19
2022-12-24T07:04:20.912Z,67.32
2022-12-24T07:09:22.584Z,67.79
2022-12-24T07:14:24.195Z,67.74
2022-12-24T07:19:25.895Z,67.70
2022-12-24T07:24:27.530Z,67.99
2022-12-24T07:29:29.155Z,67.79
2022-12-24T07:34:30.754Z,67.85
2022-12-24T07:39:32.377Z,67.84
2022-12-24T07:44:34.520Z,67.88
2022-12-24T07:49:36.507Z,67.63
2022-12-24T07:54:38.198Z,67.52
2022-12-24T07:59:39.834Z,67.19
2022-12-24T08:04:41.428Z,67.19
2022-12-24T08:09:44.678Z,67.11
2022-12-24T08:14:46.532Z,67.00
2022-12-24T08:19:48.388Z,66.82
2022-12-24T08:24:50.080Z,66.50
2022-12-24T08:29:51.863Z,66.47
2022-12-24T08:34:53.450Z,66.64
2022-12-24T08:39:55.049Z,66.60
2022-12-24T08:44:56.687Z,66.30
2022-12-24T08:49:58.551Z,66.11
2022-12-24T08:55:00.169Z,65.71
2022-12-24T09:00:01.793Z,65.56
2022-12-24T09:05:03.894Z,65.55
2022-12-24T09:10:06.089Z,65.25
2022-12-24T09:15:08.357Z,65.18
2022-12-24T09:20:10.712Z,65.03
2022-12-24T09:25:12.323Z,65.08
2022-12-24T09:30:14.457Z,64.71
2022-12-24T09:35:16.300Z,64.06
2022-12-24T09:40:40.058Z,63.56
2022-12-24T09:46:06.263Z,62.75
2022-12-24T09:51:26.830Z,62.71
2022-12-24T09:56:39.420Z,63.06
2022-12-24T10:01:41.574Z,63.17
2022-12-24T10:06:43.282Z,63.15
2022-12-24T10:11:54.106Z,63.35
2022-12-24T10:16:55.576Z,64.04
2022-12-24T10:21:57.013Z,63.93
2022-12-24T10:27:05.615Z,63.69
2022-12-24T10:32:09.874Z,63.59
2022-12-24T10:37:23.013Z,62.77
2022-12-24T10:42:32.145Z,62.06
2022-12-24T10:47:40.858Z,61.93
2022-12-24T10:52:45.437Z,61.54
2022-12-24T10:58:05.341Z,60.97
2022-12-24T11:03:13.087Z,60.98
2022-12-24T11:08:20.421Z,61.09
2022-12-24T11:13:38.492Z,60.00
2022-12-24T11:18:51.328Z,60.59
2022-12-24T11:24:13.523Z,59.29
2022-12-24T11:29:26.530Z,58.69
2022-12-24T11:34:31.005Z,58.47
2022-12-24T11:39:40.960Z,58.03
2022-12-24T11:44:49.320Z,57.99
2022-12-24T11:49:50.941Z,59.27
2022-12-24T11:55:15.479Z,58.58
2022-12-24T12:00:17.993Z,58.95
2022-12-24T12:05:24.242Z,58.81
2022-12-24T12:10:30.333Z,58.70
2022-12-24T12:15:40.864Z,58.63
2022-12-24T12:20:48.756Z,58.75
2022-12-24T12:26:18.076Z,57.83
2022-12-24T12:31:32.421Z,57.31
2022-12-24T12:36:46.329Z,57.28
2022-12-24T12:42:06.029Z,57.60
2022-12-24T12:47:35.233Z,57.17
2022-12-24T12:53:05.111Z,57.02
2022-12-24T12:58:19.363Z,57.23
2022-12-24T13:03:35.713Z,57.11
2022-12-24T13:08:49.167Z,57.62
2022-12-24T13:14:17.978Z,57.48
2022-12-24T13:19:22.531Z,57.81
2022-12-24T13:24:28.047Z,58.65
2022-12-24T13:29:41.495Z,58.23
2022-12-24T13:34:48.943Z,58.20
2022-12-24T13:40:02.873Z,57.76
2022-12-24T13:45:29.722Z,57.99
2022-12-24T13:50:52.999Z,57.82
2022-12-24T13:55:56.987Z,58.32
2022-12-24T14:01:03.259Z,58.15
2022-12-24T14:06:20.954Z,58.07
2022-12-24T14:11:26.000Z,58.55
2022-12-24T14:16:41.405Z,58.38
2022-12-24T14:21:55.293Z,58.28
2022-12-24T14:27:07.647Z,59.13
2022-12-24T14:32:14.999Z,59.32
2022-12-24T14:37:17.229Z,59.42
2022-12-24T14:42:33.721Z,59.23
2022-12-24T14:47:46.085Z,59.21
2022-12-24T14:53:19.039Z,58.49
2022-12-24T14:58:27.121Z,59.05
2022-12-24T15:03:31.918Z,59.20
2022-12-24T15:08:53.900Z,59.25
2022-12-24T15:13:58.362Z,59.65
2022-12-24T15:19:33.592Z,59.78
2022-12-24T15:24:43.634Z,60.24
2022-12-24T15:29:47.665Z,60.59
2022-12-24T15:34:54.588Z,61.21
2022-12-24T15:40:09.915Z,61.67
2022-12-24T15:45:27.758Z,61.93
2022-12-24T15:50:33.954Z,61.91
2022-12-24T15:55:40.161Z,61.87
2022-12-24T16:00:42.433Z,61.70
2022-12-24T16:05:44.845Z,61.87
2022-12-24T16:11:09.734Z,61.97
2022-12-24T16:16:14.198Z,61.87
2022-12-24T16:21:29.694Z,62.10
2022-12-24T16:26:31.300Z,62.17
2022-12-24T16:31:54.268Z,62.64
2022-12-24T16:36:56.936Z,62.85
2022-12-24T16:42:19.316Z,62.67
2022-12-24T16:47:37.238Z,62.94
2022-12-24T16:52:43.568Z,63.03
2022-12-24T16:57:45.470Z,62.99
2022-12-24T17:02:51.429Z,63.34
2022-12-24T17:07:53.231Z,63.41
2022-12-24T17:12:55.517Z,63.64
2022-12-24T17:17:57.523Z,63.88
2022-12-24T17:23:02.490Z,64.31
2022-12-24T17:28:04.407Z,64.62
2022-12-24T17:33:12.531Z,65.07
2022-12-24T17:38:16.036Z,65.34
2022-12-24T17:43:17.978Z,65.49
2022-12-24T17:48:19.645Z,65.92
2022-12-24T17:53:21.281Z,66.43
2022-12-24T17:58:22.886Z,66.42
2022-12-24T18:03:24.908Z,66.99
2022-12-24T18:08:26.566Z,67.15
2022-12-24T18:13:28.170Z,66.93
2022-12-24T18:18:29.782Z,66.99
2022-12-24T18:23:31.423Z,67.31
2022-12-24T18:28:33.231Z,67.17
2022-12-24T18:33:35.654Z,66.84
2022-12-24T18:38:37.864Z,67.52
2022-12-24T18:43:39.631Z,67.37
2022-12-24T18:48:41.742Z,67.14
2022-12-24T18:53:43.740Z,67.10
2022-12-24T18:58:45.825Z,67.20
2022-12-24T19:03:47.907Z,67.10
2022-12-24T19:08:59.001Z,67.10
2022-12-24T19:14:03.480Z,67.20
2022-12-24T19:19:06.667Z,67.26
2022-12-24T19:24:10.641Z,67.37
2022-12-24T19:29:12.499Z,67.21
2022-12-24T19:34:14.117Z,67.17
2022-12-24T19:39:16.220Z,67.28
2022-12-24T19:44:17.843Z,67.19
2022-12-24T19:49:19.458Z,67.33
2022-12-24T19:54:21.260Z,67.57
2022-12-24T19:59:22.868Z,67.28
2022-12-24T20:04:24.580Z,67.39
2022-12-24T20:09:26.135Z,66.86
2022-12-24T20:14:28.732Z,67.00
2022-12-24T20:19:30.348Z,66.85
2022-12-24T20:24:32.125Z,66.76
2022-12-24T20:29:33.869Z,66.71
2022-12-24T20:34:36.741Z,66.70
2022-12-24T20:39:38.375Z,66.57
2022-12-24T20:44:40.005Z,66.41
2022-12-24T20:49:41.642Z,66.47
2022-12-24T20:54:43.266Z,66.56
2022-12-24T20:59:44.908Z,66.56
2022-12-24T21:04:46.539Z,66.91
2022-12-24T21:09:48.289Z,66.81
2022-12-24T21:14:50.061Z,66.79
2022-12-24T21:19:51.804Z,66.69
2022-12-24T21:24:53.373Z,66.78
2022-12-24T21:29:54.992Z,66.71
2022-12-24T21:34:56.635Z,67.00
2022-12-24T21:39:58.384Z,66.79
2022-12-24T21:45:00.133Z,67.00
2022-12-24T21:50:20.704Z,67.39
2022-12-24T21:55:22.241Z,67.46
2022-12-24T22:00:27.153Z,67.47
2022-12-24T22:05:29.731Z,67.05
2022-12-24T22:10:50.531Z,66.88
2022-12-24T22:15:54.070Z,67.12
2022-12-24T22:20:56.218Z,67.14
2022-12-24T22:25:57.861Z,67.02
2022-12-24T22:30:59.633Z,66.96
2022-12-24T22:36:04.792Z,66.81
2022-12-24T22:41:11.559Z,66.74
2022-12-24T22:46:14.327Z,66.51
2022-12-24T22:51:18.399Z,66.59
2022-12-24T22:56:22.868Z,66.37
2022-12-24T23:01:38.414Z,66.33
2022-12-24T23:06:41.676Z,66.27
2022-12-24T23:11:45.119Z,66.38
2022-12-24T23:16:46.910Z,66.45
2022-12-24T23:21:48.561Z,66.49
2022-12-24T23:26:50.226Z,66.90
2022-12-24T23:31:51.853Z,66.99
2022-12-24T23:36:53.455Z,66.99
2022-12-24T23:41:55.061Z,67.09
2022-12-24T23:46:56.788Z,66.59
2022-12-24T23:51:58.450Z,66.74
2022-12-24T23:57:00.202Z,66.73
